ADDS METAR Data INFO
IDs: Format: Raw Decoded Include TAF

Data at: 1536 UTC 25 Feb 2018

KLWD 251453Z AUTO 25009KT 10SM CLR M01/M06 A2994 RMK AO2 SLP151 T10061056 51008
KLWD 251353Z AUTO 24010KT 10SM CLR M03/M07 A2994 RMK AO2 SLP150 T10281072
KLWD 251253Z AUTO 23011KT 10SM CLR M04/M08 A2993 RMK AO2 SLP148 T10391078
KLWD 251153Z AUTO 22009KT 10SM CLR M04/M07 A2992 RMK AO2 SLP144 70011 T10441072 11011 21044 53018
KLWD 251053Z AUTO 24008KT 10SM CLR M03/M07 A2989 RMK AO2 SLP133 T10331072
KLWD 250953Z AUTO 26008KT 10SM CLR M03/M07 A2987 RMK AO2 SLP127 T10281067
KLWD 250853Z AUTO 28014KT 10SM CLR M02/M07 A2986 RMK AO2 SLP124 T10221067 51024
KLWD 250753Z AUTO 26012KT 10SM CLR M02/M04 A2985 RMK AO2 SLP121 T10171044
KLWD 250653Z AUTO 25015G22KT 10SM CLR M01/M04 A2982 RMK AO2 SLP111 T10111039
KLWD 250553Z AUTO 24013KT 10SM CLR M01/M03 A2979 RMK AO2 SLP098 T10111033 10006 21017 400111039 51014
KLWD 250453Z AUTO 24013KT 10SM CLR M02/M03 A2977 RMK AO2 SLP093 T10171033
KLWD 250426Z AUTO 25011KT 9SM SCT015 M01/M03 A2977 RMK AO2 T10111033
KLWD 250353Z AUTO 26015KT 10SM OVC016 M01/M03 A2977 RMK AO2 PK WND 26029/0313 SLP091 T10061033
KLWD 250337Z AUTO 26017KT 10SM OVC015 M01/M03 A2976 RMK AO2 PK WND 26029/0313 T10061033
KLWD 250253Z AUTO 27020KT 10SM OVC012 M01/M03 A2975 RMK AO2 PK WND 26028/0234 SLP084 T10061033 53024
KLWD 250153Z AUTO 28017KT 10SM BKN011 OVC014 00/M02 A2972 RMK AO2 PK WND 27027/0124 CIG 009V013 SLP074 T00001022
KLWD 250053Z AUTO 26012KT 10SM BKN007 OVC013 00/M01 A2968 RMK AO2 SLP061 T00001011
KLWD 250049Z AUTO 27012KT 10SM BKN007 OVC013 00/M01 A2967 RMK AO2
KLWD 250034Z AUTO 27011KT 10SM FEW007 BKN013 OVC050 00/M01 A2967 RMK AO2 T00001011
KLWD 250025Z AUTO 27012KT 10SM SCT007 BKN015 OVC049 00/M01 A2967 RMK AO2 T00001011
KLWD 242353Z AUTO 27013KT 10SM BKN007 BKN012 OVC041 01/M01 A2966 RMK AO2 UPE13B26E27RAB01E30 SLP056 P0001 60005 I6000 T00061006 10011 20000 53004
KLWD 242318Z AUTO 27009KT 6SM -RA BR BKN005 OVC026 01/00 A2966 RMK AO2 UPE13RAB01 P0000 T00060000
KLWD 242300Z AUTO 26009KT 4SM UP BR BKN004 OVC017 01/00 A2966 RMK AO2 P0000 T00110000
KLWD 242253Z AUTO 26008KT 3SM UP BR SCT004 OVC016 01/00 A2966 RMK AO2 RAE50UPB50 SLP053 P0004 T00110000
KLWD 242231Z AUTO 26009KT 4SM -RA BR SCT003 OVC010 01/01 A2966 RMK AO2 P0004 T00110006
KLWD 242220Z AUTO 25006KT 2 1/2SM -RA BR FEW002 OVC010 01/01 A2965 RMK AO2 P0003 T00110006
KLWD 242208Z AUTO 24005KT 1 1/2SM -RA BR SCT002 OVC008 01/01 A2965 RMK AO2 P0002 T00110006
KLWD 242153Z AUTO 24007KT 1SM -RA BR OVC002 01/01 A2966 RMK AO2 UPB48E50RAB50 SLP054 P0000 T00110006
KLWD 242053Z AUTO 17004KT 1 1/4SM BR OVC003 01/01 A2965 RMK AO2 SLP053 I3000 T00110006 56053
KLWD 242040Z AUTO 17004KT 1SM BR OVC003 01/01 A2966 RMK AO2 T00110006
KLWD 242013Z AUTO 20004KT 3/4SM BR VV003 01/01 A2969 RMK AO2 T00110006
KLWD 241953Z AUTO 17005KT 1SM BR OVC002 01/00 A2970 RMK AO2 SLP068 I1000 T00060000
KLWD 241922Z AUTO VRB05KT 1 3/4SM BR OVC002 01/00 A2971 RMK AO2 T00060000
KLWD 241905Z AUTO 11007KT 2 1/2SM BR OVC002 01/00 A2971 RMK AO2 T00060000
KLWD 241853Z AUTO 10007KT 3SM BR OVC002 01/M01 A2972 RMK AO2 PRESFR SLP077 T00061006
KLWD 241846Z AUTO 10007KT 2 1/2SM BR OVC002 01/M01 A2973 RMK AO2 PRESFR T00061006
KLWD 241753Z AUTO 12006KT 1SM BR OVC002 00/M01 A2982 RMK AO2 SLP110 60006 I6015 T00001006 10000 21028 56036
KLWD 241653Z AUTO 11008KT 1 3/4SM BR OVC003 00/M01 A2983 RMK AO2 SLP115 I1004 T00001011
KLWD 241553Z AUTO 11007KT 1 1/2SM BR OVC004 M01/M02 A2989 RMK AO2 SLP133 I1001 T10061017
KLWD 241539Z AUTO 11008G19KT 1 1/2SM BR OVC004 M01/M02 A2990 RMK AO2 I1001 T10061017
KLWD 241517Z AUTO 10009G17KT 2SM BR OVC004 M01/M02 A2991 RMK AO2 T10111022
KLWD 241502Z AUTO 09008G16KT 1 3/4SM BR OVC004 M01/M02 A2992 RMK AO2 T10111022
KLWD 241453Z AUTO 09007KT 2SM BR OVC005 M01/M02 A2993 RMK AO2 FZRAE00 PRESFR SLP147 P0000 60006 I1002 I3010 T10111022 56020
KLWD 241437Z AUTO 10007KT 1 3/4SM BR OVC005 M01/M02 A2995 RMK AO2 FZRAE00 P0000 I1001 T10111022
KLWD 241426Z AUTO 09009G15KT 2SM BR OVC005 M01/M02 A2996 RMK AO2 FZRAE00 P0000 I1001 T10111022
KLWD 241406Z AUTO 09006KT 1 1/2SM BR OVC005 M01/M02 A2997 RMK AO2 FZRAE00 P0000 I1000 T10111022
KLWD 241353Z AUTO 09009KT 1 1/2SM -FZRA BR OVC005 M01/M03 A2997 RMK AO2 UPB29E39FZRAE29B39 SLP161 P0003 I1003 T10111028
KLWD 241345Z AUTO 10010G16KT 1 1/2SM -FZRA BR OVC005 M01/M03 A2998 RMK AO2 UPB29E39FZRAE29B39 P0003 I1002 T10111028
KLWD 241329Z AUTO 09010KT 1 3/4SM UP BR OVC005 M02/M03 A2998 RMK AO2 UPB29FZRAE29 P0002 I1002 T10171028
KLWD 241253Z AUTO 08008G16KT 2SM -FZRA BR OVC006 M02/M03 A2999 RMK AO2 UPE09FZRAB09 SLP168 P0003 I1005 T10171033
KLWD 241242Z AUTO 08011G18KT 2 1/2SM -FZRA BR OVC006 M02/M03 A2998 RMK AO2 UPE09FZRAB09 PRESFR P0002 I1003 T10221033
KLWD 241215Z AUTO 07009KT 3SM -FZRA BR OVC008 M02/M04 A3001 RMK AO2 UPE09FZRAB09 P0000 I1001 T10221039
KLWD 241153Z AUTO 07009G17KT 5SM UP BR BKN008 OVC039 M02/M04 A3001 RMK AO2 UPB49FZRAE49 SLP175 P0002 60003 70003 I1001 I6001 T10221039 11022 21039 58029
KLWD 241131Z AUTO 07010KT 4SM -FZRA BR BKN008 BKN048 OVC055 M03/M04 A3002 RMK AO2 P0001 I1001 T10281044
KLWD 241103Z AUTO 06011KT 5SM -FZRA BR FEW008 SCT036 OVC055 M03/M04 A3004 RMK AO2 P0001 I1000 T10281044
KLWD 241053Z AUTO 06009KT 4SM -FZRA BR FEW038 OVC050 M03/M04 A3005 RMK AO2 UPE06B44E48FZRAB48 SLP186 P0001 I1000 T10281044
KLWD 240953Z AUTO 05011KT 6SM UP BR SCT008 OVC050 M03/M05 A3008 RMK AO2 UPB37 SLP196 P0000 I1000 T10281050
KLWD 240853Z AUTO 05013G18KT 8SM OVC008 M03/M05 A3010 RMK AO2 SLP205 T10331050 58034
KLWD 240753Z AUTO 04011KT 6SM BR OVC005 M03/M05 A3015 RMK AO2 SLP222 T10331050
KLWD 240653Z AUTO 04014KT 5SM BR OVC004 M04/M05 A3018 RMK AO2 SLP232 T10391050
KLWD 240553Z AUTO 04013KT 4SM BR OVC003 M03/M04 A3020 RMK AO2 SLP242 T10331044 10011 21033 400331033 58011
KLWD 240525Z AUTO 03011KT 4SM BR OVC004 M03/M04 A3021 RMK AO2 T10331044
KLWD 240453Z AUTO 04009KT 6SM BR OVC006 M03/M04 A3022 RMK AO2 SLP248 T10281044
KLWD 240426Z AUTO 03009KT 7SM BKN007 M03/M04 A3024 RMK AO2 T10281044
KLWD 240353Z AUTO 03008KT 8SM SCT009 OVC022 M02/M04 A3024 RMK AO2 SLP253 T10221044
KLWD 240341Z AUTO 02007KT 8SM FEW008 BKN022 M02/M04 A3024 RMK AO2 T10221044